createdAt,value
2018-05-21T00:00:51.362Z,70.70
2018-05-21T00:01:53.908Z,71.10
2018-05-21T00:02:56.422Z,72.00
2018-05-21T00:03:58.938Z,72.00
2018-05-21T00:05:01.519Z,71.50
2018-05-21T00:06:04.048Z,71.50
2018-05-21T00:07:07.364Z,71.60
2018-05-21T00:08:09.881Z,71.60
2018-05-21T00:09:12.413Z,72.20
2018-05-21T00:10:14.964Z,71.90
2018-05-21T00:11:17.480Z,72.30
2018-05-21T00:12:20.000Z,72.80
2018-05-21T00:13:22.540Z,73.20
2018-05-21T00:14:25.085Z,72.70
2018-05-21T00:15:27.657Z,72.80
2018-05-21T00:16:30.940Z,73.60
2018-05-21T00:17:33.478Z,72.80
2018-05-21T00:18:36.084Z,73.00
2018-05-21T00:19:38.556Z,73.30
2018-05-21T00:20:41.872Z,73.60
2018-05-21T00:21:44.422Z,73.50
2018-05-21T00:22:46.974Z,73.40
2018-05-21T00:23:50.261Z,73.80
2018-05-21T00:24:52.783Z,73.80
2018-05-21T00:25:55.296Z,73.20
2018-05-21T00:26:57.822Z,73.90
2018-05-21T00:28:00.377Z,73.40
2018-05-21T00:29:02.896Z,72.60
2018-05-21T00:30:05.454Z,72.90
2018-05-21T00:31:08.735Z,73.00
2018-05-21T00:32:12.024Z,72.90
2018-05-21T00:33:14.551Z,72.80
2018-05-21T00:34:17.077Z,73.10
2018-05-21T00:35:19.639Z,74.00
2018-05-21T00:36:22.156Z,74.50
2018-05-21T00:37:24.676Z,74.80
2018-05-21T00:38:27.195Z,75.40
2018-05-21T00:39:29.712Z,75.90
2018-05-21T00:40:32.272Z,75.70
2018-05-21T00:41:34.795Z,76.40
2018-05-21T00:42:37.316Z,76.70
2018-05-21T00:43:39.841Z,77.10
2018-05-21T00:44:43.130Z,77.80
2018-05-21T00:45:46.455Z,78.00
2018-05-21T00:46:48.973Z,78.00
2018-05-21T00:47:52.257Z,79.00
2018-05-21T00:48:55.547Z,78.90
2018-05-21T00:49:58.073Z,78.90
2018-05-21T00:51:00.631Z,79.10
2018-05-21T00:52:03.196Z,79.70
2018-05-21T00:53:05.723Z,80.00
2018-05-21T00:54:08.260Z,80.50
2018-05-21T00:55:22.640Z,79.20
2018-05-21T00:56:25.164Z,79.20
2018-05-21T00:57:27.719Z,78.90
2018-05-21T00:58:30.248Z,78.60
2018-05-21T00:59:32.777Z,78.20
2018-05-21T01:00:36.108Z,77.60
2018-05-21T01:01:38.639Z,77.60
2018-05-21T01:02:41.167Z,77.20
2018-05-21T01:03:43.784Z,75.50
2018-05-21T01:04:46.306Z,74.20
2018-05-21T01:05:48.878Z,74.30
2018-05-21T01:06:51.402Z,74.70
2018-05-21T01:07:53.914Z,75.30
2018-05-21T01:08:56.436Z,76.00
2018-05-21T01:09:58.957Z,76.80
2018-05-21T01:11:02.284Z,77.80
2018-05-21T01:12:04.807Z,77.80
2018-05-21T01:13:08.097Z,79.20
2018-05-21T01:14:11.380Z,79.20
2018-05-21T01:15:14.670Z,79.40
2018-05-21T01:16:17.989Z,79.60
2018-05-21T01:17:20.513Z,79.50
2018-05-21T01:18:23.836Z,78.80
2018-05-21T01:19:26.358Z,78.70
2018-05-21T01:20:29.655Z,78.10
2018-05-21T01:21:32.180Z,78.10
2018-05-21T01:22:34.693Z,77.60
2018-05-21T01:23:37.252Z,77.50
2018-05-21T01:24:40.543Z,77.10
2018-05-21T01:25:43.068Z,77.10
2018-05-21T01:26:45.600Z,76.60
2018-05-21T01:27:48.258Z,76.70
2018-05-21T01:28:50.829Z,76.70
2018-05-21T01:29:53.347Z,76.20
2018-05-21T01:30:55.862Z,76.10
2018-05-21T01:31:58.375Z,76.40
2018-05-21T01:33:00.892Z,76.20
2018-05-21T01:34:03.457Z,76.30
2018-05-21T01:35:05.980Z,76.20
2018-05-21T01:36:09.277Z,76.10
2018-05-21T01:37:12.561Z,76.10
2018-05-21T01:38:15.896Z,76.30
2018-05-21T01:39:18.427Z,76.20
2018-05-21T01:40:20.964Z,76.20
2018-05-21T01:41:24.252Z,76.00
2018-05-21T01:42:27.541Z,76.20
2018-05-21T01:43:30.904Z,76.20
2018-05-21T01:44:33.477Z,76.20
2018-05-21T01:45:35.991Z,76.10
2018-05-21T01:46:38.517Z,76.20
2018-05-21T01:47:41.803Z,76.60
2018-05-21T01:48:45.097Z,76.60
2018-05-21T01:49:48.430Z,76.40
2018-05-21T01:50:50.992Z,76.40
2018-05-21T01:51:53.523Z,76.60
2018-05-21T01:52:56.153Z,76.50
2018-05-21T01:53:58.684Z,76.80
2018-05-21T01:55:01.247Z,76.80
2018-05-21T01:56:03.805Z,77.00
2018-05-21T01:57:06.324Z,77.20
2018-05-21T01:58:08.841Z,77.10
2018-05-21T01:59:11.353Z,77.30
2018-05-21T02:00:13.919Z,77.40
2018-05-21T02:01:16.483Z,77.50
2018-05-21T02:02:19.059Z,77.40
2018-05-21T02:03:21.585Z,77.60
2018-05-21T02:04:24.124Z,77.50
2018-05-21T02:05:26.657Z,77.40
2018-05-21T02:06:29.184Z,77.50
2018-05-21T02:07:32.506Z,78.10
2018-05-21T02:08:35.077Z,77.70
2018-05-21T02:09:37.596Z,77.80
2018-05-21T02:10:40.113Z,77.90
2018-05-21T02:11:43.403Z,78.60
2018-05-21T02:12:46.935Z,78.20
2018-05-21T02:13:49.461Z,78.20
2018-05-21T02:14:52.750Z,78.60
2018-05-21T02:15:56.037Z,78.60
2018-05-21T02:16:59.364Z,78.50
2018-05-21T02:18:01.890Z,78.50
2018-05-21T02:19:05.174Z,78.10
2018-05-21T02:20:07.764Z,78.10
2018-05-21T02:21:10.289Z,78.10
2018-05-21T02:22:13.571Z,77.40
2018-05-21T02:23:16.123Z,77.40
2018-05-21T02:24:18.676Z,78.00
2018-05-21T02:25:21.275Z,78.40
2018-05-21T02:26:24.563Z,79.20
2018-05-21T02:27:27.981Z,79.60
2018-05-21T02:28:31.611Z,79.60
2018-05-21T02:29:34.140Z,80.40
2018-05-21T02:30:36.685Z,80.90
2018-05-21T02:31:39.210Z,81.60
2018-05-21T02:32:41.745Z,81.90
2018-05-21T02:33:44.298Z,82.30
2018-05-21T02:34:46.857Z,82.30
2018-05-21T02:35:49.379Z,82.70
2018-05-21T02:36:51.911Z,83.30
2018-05-21T02:37:54.432Z,83.90
2018-05-21T02:38:57.761Z,85.20
2018-05-21T02:40:00.283Z,85.20
2018-05-21T02:41:03.571Z,85.80
2018-05-21T02:42:06.861Z,86.30
2018-05-21T02:43:10.195Z,85.60
2018-05-21T02:44:12.729Z,85.60
2018-05-21T02:45:15.278Z,85.50
2018-05-21T02:46:18.568Z,86.50
2018-05-21T02:47:21.091Z,86.50
2018-05-21T02:48:23.652Z,86.50
2018-05-21T02:49:26.738Z,86.00
2018-05-21T02:50:29.260Z,85.50
2018-05-21T02:51:31.782Z,85.40
2018-05-21T02:52:34.305Z,86.20
2018-05-21T02:53:36.868Z,86.50
2018-05-21T02:54:39.405Z,86.50
2018-05-21T02:55:41.969Z,87.20
2018-05-21T02:56:45.264Z,87.20
2018-05-21T02:57:47.832Z,87.20
2018-05-21T02:58:51.237Z,87.00
2018-05-21T02:59:53.761Z,87.10
2018-05-21T03:00:57.057Z,86.10
2018-05-21T03:01:59.593Z,86.10
2018-05-21T03:03:02.121Z,86.20
2018-05-21T03:04:04.687Z,85.60
2018-05-21T03:05:07.204Z,85.60
2018-05-21T03:06:09.726Z,85.00
2018-05-21T03:07:12.256Z,85.90
2018-05-21T03:08:15.538Z,86.20
2018-05-21T03:09:18.120Z,86.10
2018-05-21T03:11:29.715Z,87.30
2018-05-21T03:12:32.231Z,88.00
2018-05-21T03:13:34.794Z,88.60
2018-05-21T03:14:37.313Z,89.40
2018-05-21T03:15:39.831Z,89.60
2018-05-21T03:16:42.391Z,90.00
2018-05-21T03:17:44.921Z,90.20
2018-05-21T03:18:47.444Z,90.20
2018-05-21T03:19:50.745Z,90.40
2018-05-21T03:20:53.277Z,90.40
2018-05-21T03:21:55.831Z,90.40
2018-05-21T03:22:58.381Z,90.60
2018-05-21T03:24:00.898Z,90.60
2018-05-21T03:25:04.184Z,90.90
2018-05-21T03:26:07.480Z,91.00
2018-05-21T03:27:10.045Z,91.00
2018-05-21T03:28:12.577Z,91.10
2018-05-21T03:29:15.111Z,91.30
2018-05-21T03:30:17.635Z,91.30
2018-05-21T03:31:20.956Z,91.30
2018-05-21T03:32:23.514Z,91.30
2018-05-21T03:33:26.048Z,91.50
2018-05-21T03:34:29.335Z,91.60
2018-05-21T03:35:32.610Z,91.40
2018-05-21T03:36:35.998Z,91.70
2018-05-21T03:37:38.500Z,91.70
2018-05-21T03:38:41.020Z,91.80
2018-05-21T03:39:44.316Z,91.90
2018-05-21T03:40:47.608Z,92.20
2018-05-21T03:41:50.134Z,91.90
2018-05-21T03:42:52.723Z,91.90
2018-05-21T03:43:56.012Z,92.10
2018-05-21T03:44:59.311Z,92.30
2018-05-21T03:46:01.835Z,92.30
2018-05-21T03:47:04.352Z,92.30
2018-05-21T03:48:06.907Z,92.40
2018-05-21T03:49:09.463Z,92.70
2018-05-21T03:50:12.747Z,92.80
2018-05-21T03:51:16.040Z,92.60
2018-05-21T03:52:18.599Z,92.60
2018-05-21T03:53:21.890Z,92.80
2018-05-21T03:54:24.447Z,92.80
2018-05-21T03:55:27.743Z,93.30
2018-05-21T03:56:30.269Z,93.30
2018-05-21T03:57:32.800Z,93.00
2018-05-21T03:58:47.234Z,93.00
2018-05-21T04:01:45.897Z,93.10
2018-05-21T04:03:01.112Z,93.00
2018-05-21T04:04:03.634Z,93.00
2018-05-21T04:05:06.155Z,92.80
2018-05-21T04:06:08.684Z,92.90
2018-05-21T04:07:11.299Z,92.50
2018-05-21T04:08:13.895Z,92.30
2018-05-21T04:09:16.364Z,92.10
2018-05-21T04:10:19.643Z,92.10
2018-05-21T04:11:22.935Z,91.80
2018-05-21T04:12:26.351Z,91.70
2018-05-21T04:13:28.884Z,91.70
2018-05-21T04:14:32.175Z,91.50
2018-05-21T04:15:34.712Z,91.50
2018-05-21T04:16:37.255Z,91.30
2018-05-21T04:17:39.811Z,91.30
2018-05-21T04:18:42.366Z,91.00
2018-05-21T04:19:44.924Z,90.90
2018-05-21T04:20:47.451Z,90.90
2018-05-21T04:21:50.741Z,90.70
2018-05-21T04:22:54.033Z,90.70
2018-05-21T04:23:57.328Z,90.70
2018-05-21T04:24:59.881Z,90.70
2018-05-21T04:26:03.168Z,90.60
2018-05-21T04:27:06.511Z,90.60
2018-05-21T04:28:09.051Z,90.60
2018-05-21T04:29:11.585Z,90.50
2018-05-21T04:30:14.873Z,90.80
2018-05-21T04:31:17.391Z,90.50
2018-05-21T04:32:19.960Z,90.40
2018-05-21T04:33:22.475Z,90.40
2018-05-21T04:34:25.027Z,90.30
2018-05-21T04:35:28.312Z,90.30
2018-05-21T04:36:31.602Z,90.20
2018-05-21T04:37:34.121Z,90.20
2018-05-21T04:38:36.654Z,90.20
2018-05-21T04:39:39.211Z,90.20
2018-05-21T04:40:41.733Z,90.20
2018-05-21T04:41:44.276Z,90.10
2018-05-21T04:42:46.801Z,90.20
2018-05-21T04:43:49.327Z,90.10
2018-05-21T04:44:51.891Z,90.20
2018-05-21T04:45:54.446Z,90.00
2018-05-21T04:46:56.974Z,89.90
2018-05-21T04:47:59.501Z,90.00
2018-05-21T04:49:02.027Z,90.00
2018-05-21T04:50:04.593Z,90.00
2018-05-21T04:51:07.113Z,89.80
2018-05-21T04:52:10.409Z,89.60
2018-05-21T04:53:13.727Z,89.50
2018-05-21T04:54:16.250Z,89.50
2018-05-21T04:55:19.580Z,89.30
2018-05-21T04:56:22.092Z,89.30
2018-05-21T04:57:25.428Z,89.30
2018-05-21T04:58:27.964Z,89.30
2018-05-21T04:59:31.257Z,89.70
2018-05-21T05:00:33.774Z,89.70
2018-05-21T05:01:36.297Z,89.40
2018-05-21T05:02:38.862Z,89.20
2018-05-21T05:03:41.387Z,88.90
2018-05-21T05:04:43.916Z,89.00
2018-05-21T05:05:46.435Z,89.00
2018-05-21T05:06:49.784Z,89.00
2018-05-21T05:07:52.312Z,88.90
2018-05-21T05:08:54.878Z,89.10
2018-05-21T05:09:57.401Z,89.20
2018-05-21T05:10:59.924Z,89.10
2018-05-21T05:12:02.459Z,89.40
2018-05-21T05:13:05.798Z,88.70
2018-05-21T05:14:08.335Z,88.80
2018-05-21T05:15:10.877Z,89.00
2018-05-21T05:16:14.161Z,89.40
2018-05-21T05:17:16.701Z,89.30
2018-05-21T05:18:19.272Z,89.20
2018-05-21T05:19:22.558Z,89.30
2018-05-21T05:20:25.082Z,88.70
2018-05-21T05:21:27.603Z,89.20
2018-05-21T05:22:30.890Z,88.70
2018-05-21T05:23:34.216Z,88.50
2018-05-21T05:24:36.735Z,88.40
2018-05-21T05:25:40.031Z,88.60
2018-05-21T05:26:42.633Z,88.60
2018-05-21T05:27:45.101Z,88.60
2018-05-21T05:28:47.660Z,88.40
2018-05-21T05:29:50.221Z,88.40
2018-05-21T05:30:52.745Z,88.30
2018-05-21T05:31:56.029Z,88.40
2018-05-21T05:32:59.324Z,88.20
2018-05-21T05:34:01.879Z,88.10
2018-05-21T05:35:05.179Z,88.30
2018-05-21T05:36:07.788Z,88.30
2018-05-21T05:37:10.285Z,88.50
2018-05-21T05:38:12.815Z,88.10
2018-05-21T05:39:15.374Z,87.90
2018-05-21T05:40:17.895Z,87.80
2018-05-21T05:41:21.192Z,87.70
2018-05-21T05:42:23.719Z,87.70
2018-05-21T05:43:26.244Z,87.20
2018-05-21T05:44:28.821Z,87.50
2018-05-21T05:45:31.343Z,87.50
2018-05-21T05:46:34.627Z,87.70
2018-05-21T05:47:37.928Z,88.10
2018-05-21T05:48:40.447Z,88.00
2018-05-21T05:49:43.012Z,88.20
2018-05-21T05:50:45.583Z,87.20
2018-05-21T05:51:48.133Z,87.20
2018-05-21T05:52:50.660Z,87.40
2018-05-21T05:53:53.184Z,87.50
2018-05-21T05:54:55.719Z,87.70
2018-05-21T05:55:58.278Z,87.40
2018-05-21T05:57:00.796Z,87.20
2018-05-21T05:58:03.354Z,86.80
2018-05-21T05:59:05.880Z,87.20
2018-05-21T06:00:08.416Z,87.50
2018-05-21T06:01:11.750Z,86.90
2018-05-21T06:02:14.277Z,86.90
2018-05-21T06:03:16.800Z,87.00
2018-05-21T06:04:19.338Z,86.40
2018-05-21T06:05:22.632Z,86.60
2018-05-21T06:06:25.188Z,86.60
2018-05-21T06:07:27.722Z,86.70
2018-05-21T06:08:30.249Z,86.70
2018-05-21T06:09:32.775Z,86.90
2018-05-21T06:10:35.322Z,86.80
2018-05-21T06:11:37.896Z,87.10
2018-05-21T06:12:40.417Z,86.30
2018-05-21T06:13:42.938Z,86.10
2018-05-21T06:14:45.482Z,86.00
2018-05-21T06:15:48.008Z,86.20
2018-05-21T06:16:50.592Z,86.00
2018-05-21T06:17:53.108Z,85.30
2018-05-21T06:18:55.623Z,85.70
2018-05-21T06:19:58.138Z,85.20
2018-05-21T06:21:00.662Z,85.70
2018-05-21T06:22:03.977Z,85.50
2018-05-21T06:23:06.519Z,85.50
2018-05-21T06:24:09.806Z,85.60
2018-05-21T06:25:13.106Z,85.30
2018-05-21T06:26:15.636Z,85.20
2018-05-21T06:27:18.213Z,84.70
2018-05-21T06:28:21.502Z,84.80
2018-05-21T06:29:24.791Z,84.90
2018-05-21T06:30:28.129Z,84.80
2018-05-21T06:31:30.690Z,84.80
2018-05-21T06:32:33.211Z,84.80
2018-05-21T06:33:36.488Z,84.70
2018-05-21T06:34:39.837Z,84.40
2018-05-21T06:35:42.334Z,84.30
2018-05-21T06:36:45.665Z,84.40
2018-05-21T06:37:48.192Z,84.20
2018-05-21T06:38:51.491Z,83.80
2018-05-21T06:39:54.021Z,83.70
2018-05-21T06:40:56.557Z,84.20
2018-05-21T06:41:59.136Z,83.40
2018-05-21T06:43:01.666Z,83.80
2018-05-21T06:44:04.197Z,82.80
2018-05-21T06:45:07.494Z,83.40
2018-05-21T06:46:10.776Z,82.80
2018-05-21T06:47:14.100Z,82.30
2018-05-21T06:48:16.628Z,82.30
2018-05-21T06:49:19.910Z,82.80
2018-05-21T06:50:23.188Z,82.10
2018-05-21T06:51:26.512Z,81.90
2018-05-21T06:52:29.027Z,81.90
2018-05-21T06:53:31.547Z,81.80
2018-05-21T06:54:34.071Z,81.90
2018-05-21T06:55:37.363Z,81.80
2018-05-21T06:56:40.687Z,81.90
2018-05-21T06:57:43.204Z,81.90
2018-05-21T06:58:46.492Z,82.00
2018-05-21T06:59:49.844Z,81.50
2018-05-21T07:00:52.369Z,81.50
2018-05-21T07:01:54.916Z,81.30
2018-05-21T07:02:57.441Z,81.40
2018-05-21T07:03:59.961Z,80.90
2018-05-21T07:05:02.480Z,81.10
2018-05-21T07:06:05.040Z,80.70
2018-05-21T07:07:07.556Z,80.80
2018-05-21T07:08:10.076Z,81.10
2018-05-21T07:09:12.596Z,81.20
2018-05-21T07:10:15.128Z,81.70
2018-05-21T07:11:18.467Z,80.10
2018-05-21T07:12:21.768Z,80.10
2018-05-21T07:13:24.297Z,80.20
2018-05-21T07:14:26.815Z,80.20
2018-05-21T07:15:29.332Z,80.20
2018-05-21T07:16:31.891Z,80.20
2018-05-21T07:17:34.406Z,80.30
2018-05-21T07:18:36.931Z,79.90
2018-05-21T07:19:39.450Z,79.60
2018-05-21T07:20:41.967Z,80.30
2018-05-21T07:21:44.531Z,80.70
2018-05-21T07:22:47.049Z,80.00
2018-05-21T07:23:50.340Z,80.30
2018-05-21T07:24:53.640Z,78.30
2018-05-21T07:25:56.177Z,78.20
2018-05-21T07:26:58.735Z,78.10
2018-05-21T07:28:01.251Z,78.70
2018-05-21T07:29:03.763Z,79.00
2018-05-21T07:30:06.285Z,77.70
2018-05-21T07:31:08.811Z,77.50
2018-05-21T07:32:11.367Z,77.50
2018-05-21T07:33:13.886Z,77.20
2018-05-21T07:34:16.412Z,77.50
2018-05-21T07:35:18.945Z,77.50
2018-05-21T07:36:21.469Z,78.10
2018-05-21T07:37:24.035Z,78.30
2018-05-21T07:38:26.565Z,77.60
2018-05-21T07:39:29.082Z,77.70
2018-05-21T07:40:31.600Z,77.30
2018-05-21T07:41:34.131Z,77.10
2018-05-21T07:42:36.692Z,77.40
2018-05-21T07:43:39.217Z,77.40
2018-05-21T07:44:42.555Z,77.80
2018-05-21T07:45:45.093Z,77.70
2018-05-21T07:46:47.616Z,77.50
2018-05-21T07:47:50.198Z,75.90
2018-05-21T07:48:52.745Z,76.30
2018-05-21T07:49:55.262Z,76.30
2018-05-21T07:50:57.784Z,76.80
2018-05-21T07:52:00.351Z,76.20
2018-05-21T07:53:02.887Z,76.20
2018-05-21T07:54:05.403Z,75.90
2018-05-21T07:55:08.707Z,75.80
2018-05-21T07:56:11.220Z,75.90
2018-05-21T07:57:13.739Z,76.10
2018-05-21T07:58:16.383Z,76.70
2018-05-21T07:59:18.871Z,76.90
2018-05-21T08:00:21.427Z,76.40
2018-05-21T08:01:23.952Z,74.90
2018-05-21T08:02:26.474Z,75.20
2018-05-21T08:03:28.984Z,74.90
2018-05-21T08:04:31.556Z,75.20
2018-05-21T08:05:34.095Z,76.20
2018-05-21T08:06:36.629Z,76.60
2018-05-21T08:07:39.163Z,74.40
2018-05-21T08:08:42.481Z,74.10
2018-05-21T08:09:45.067Z,74.10
2018-05-21T08:10:47.597Z,75.10
2018-05-21T08:11:50.117Z,73.60
2018-05-21T08:12:52.640Z,74.10
2018-05-21T08:13:55.170Z,75.60
2018-05-21T08:14:58.533Z,74.40
2018-05-21T08:16:01.061Z,75.00
2018-05-21T08:17:03.575Z,74.10
2018-05-21T08:18:06.100Z,73.90
2018-05-21T08:19:08.627Z,73.90
2018-05-21T08:20:11.955Z,73.70
2018-05-21T08:21:14.486Z,73.70
2018-05-21T08:22:17.864Z,73.90
2018-05-21T08:23:20.378Z,73.80
2018-05-21T08:24:23.668Z,73.60
2018-05-21T08:25:26.187Z,73.60
2018-05-21T08:26:29.492Z,73.80
2018-05-21T08:27:32.059Z,73.70
2018-05-21T08:28:34.579Z,75.00
2018-05-21T08:29:37.119Z,73.60
2018-05-21T08:30:39.656Z,73.20
2018-05-21T08:31:42.260Z,73.70
2018-05-21T08:32:44.886Z,74.80
2018-05-21T08:33:47.343Z,73.10
2018-05-21T08:34:49.871Z,73.50
2018-05-21T08:35:52.397Z,72.10
2018-05-21T08:36:54.955Z,71.80
2018-05-21T08:37:57.497Z,72.10
2018-05-21T08:39:00.828Z,72.20
2018-05-21T08:40:03.392Z,72.10
2018-05-21T08:41:05.923Z,73.10
2018-05-21T08:42:09.246Z,72.20
2018-05-21T08:43:11.788Z,72.20
2018-05-21T08:44:14.353Z,71.40
2018-05-21T08:45:16.907Z,70.00
2018-05-21T08:46:19.450Z,69.10
2018-05-21T08:47:22.016Z,69.90
2018-05-21T08:48:24.607Z,69.50
2018-05-21T08:49:27.711Z,69.30
2018-05-21T08:50:30.245Z,70.50
2018-05-21T08:51:33.537Z,69.80
2018-05-21T08:52:36.103Z,69.70
2018-05-21T08:53:38.631Z,70.40
2018-05-21T08:54:41.165Z,69.60
2018-05-21T08:55:44.463Z,67.80
2018-05-21T08:56:46.995Z,67.90
2018-05-21T08:57:49.548Z,68.10
2018-05-21T08:58:52.915Z,67.10
2018-05-21T08:59:55.375Z,67.10
2018-05-21T09:00:57.904Z,66.20
2018-05-21T09:02:00.459Z,65.70
2018-05-21T09:03:02.985Z,65.60
2018-05-21T09:04:05.511Z,65.90
2018-05-21T09:05:08.047Z,65.20
2018-05-21T09:06:10.568Z,63.40
2018-05-21T09:07:13.129Z,64.40
2018-05-21T09:08:15.657Z,63.60
2018-05-21T09:09:18.182Z,64.60
2018-05-21T09:10:21.486Z,65.40
2018-05-21T09:11:24.014Z,64.60
2018-05-21T09:12:28.166Z,63.40
2018-05-21T09:13:30.647Z,63.40
2018-05-21T09:14:33.167Z,63.10
2018-05-21T09:15:35.691Z,63.20
2018-05-21T09:16:38.272Z,62.90
2018-05-21T09:17:40.801Z,63.10
2018-05-21T09:18:43.320Z,62.70
2018-05-21T09:19:45.858Z,63.20
2018-05-21T09:20:48.376Z,62.50
2018-05-21T09:21:51.696Z,61.40
2018-05-21T09:22:54.220Z,61.40
2018-05-21T09:23:57.517Z,61.10
2018-05-21T09:25:00.039Z,61.00
2018-05-21T09:26:02.613Z,61.30
2018-05-21T09:27:05.136Z,60.50
2018-05-21T09:28:07.652Z,61.00
2018-05-21T09:29:10.171Z,60.70
2018-05-21T09:30:12.701Z,60.60
2018-05-21T09:31:16.067Z,59.60
2018-05-21T09:32:18.602Z,59.50
2018-05-21T09:33:21.163Z,59.10
2018-05-21T09:34:23.688Z,58.90
2018-05-21T09:35:26.988Z,59.50
2018-05-21T09:36:29.508Z,59.50
2018-05-21T09:37:32.040Z,59.10
2018-05-21T09:38:34.613Z,57.90
2018-05-21T09:39:37.137Z,57.90
2018-05-21T09:40:40.448Z,58.30
2018-05-21T09:41:42.990Z,58.30
2018-05-21T09:42:46.304Z,57.10
2018-05-21T09:43:48.821Z,57.10
2018-05-21T09:44:51.352Z,57.30
2018-05-21T09:45:53.877Z,57.20
2018-05-21T09:46:57.168Z,57.40
2018-05-21T09:47:59.723Z,57.50
2018-05-21T09:49:03.010Z,54.70
2018-05-21T09:50:05.537Z,54.70
2018-05-21T09:51:08.067Z,55.20
2018-05-21T09:52:10.614Z,55.00
2018-05-21T09:53:13.162Z,55.20
2018-05-21T09:54:16.457Z,55.40
2018-05-21T09:55:19.028Z,55.10
2018-05-21T09:56:22.320Z,54.30
2018-05-21T09:57:24.905Z,54.20
2018-05-21T09:58:28.214Z,54.30
2018-05-21T09:59:30.731Z,54.40
2018-05-21T10:00:34.019Z,56.30
2018-05-21T10:01:36.569Z,56.40
2018-05-21T10:02:39.892Z,56.10
2018-05-21T10:03:42.411Z,56.10
2018-05-21T10:04:45.704Z,55.50
2018-05-21T10:05:48.994Z,54.60
2018-05-21T10:06:51.597Z,54.50
2018-05-21T10:07:54.888Z,53.70
2018-05-21T10:08:57.407Z,53.40
2018-05-21T10:10:00.691Z,52.90
2018-05-21T10:11:03.976Z,51.50
2018-05-21T10:12:07.375Z,52.10
2018-05-21T10:13:09.864Z,52.10
2018-05-21T10:14:12.401Z,52.30
2018-05-21T10:15:14.927Z,52.20
2018-05-21T10:16:17.456Z,53.40
2018-05-21T10:17:19.992Z,53.80
2018-05-21T10:18:23.311Z,52.90
2018-05-21T10:19:26.002Z,52.90
2018-05-21T10:20:28.411Z,54.60
2018-05-21T10:21:30.938Z,53.00
2018-05-21T10:22:33.467Z,51.90
2018-05-21T10:23:36.006Z,51.40
2018-05-21T10:24:39.319Z,52.00
2018-05-21T10:25:41.839Z,51.90
2018-05-21T10:26:44.354Z,51.30
2018-05-21T10:27:46.875Z,51.00
2018-05-21T10:28:50.199Z,51.50
2018-05-21T10:29:52.726Z,51.50
2018-05-21T10:30:56.021Z,52.10
2018-05-21T10:31:59.302Z,52.20
2018-05-21T10:33:02.592Z,50.10
2018-05-21T10:34:05.171Z,50.10
2018-05-21T10:35:07.697Z,51.30
2018-05-21T10:36:10.228Z,51.50
2018-05-21T10:37:12.755Z,51.80
2018-05-21T10:38:15.291Z,49.90
2018-05-21T10:39:17.862Z,50.00
2018-05-21T10:40:20.426Z,49.90
2018-05-21T10:41:22.957Z,49.80
2018-05-21T10:42:25.479Z,50.40
2018-05-21T10:49:51.329Z,46.40
2018-05-21T10:50:54.624Z,46.50
2018-05-21T10:51:57.158Z,46.40
2018-05-21T10:53:00.512Z,46.90
2018-05-21T10:54:03.027Z,46.90
2018-05-21T10:55:06.312Z,44.20
2018-05-21T10:56:09.641Z,44.60
2018-05-21T10:57:12.172Z,44.30
2018-05-21T10:58:15.458Z,45.20
2018-05-21T10:59:18.745Z,44.80
2018-05-21T11:00:21.305Z,44.80
2018-05-21T11:01:24.632Z,44.00
2018-05-21T11:02:27.187Z,44.00
2018-05-21T11:03:29.731Z,44.90
2018-05-21T11:04:32.340Z,44.90
2018-05-21T11:05:35.573Z,45.00
2018-05-21T11:06:38.901Z,45.80
2018-05-21T11:07:41.419Z,45.70
2018-05-21T11:08:44.721Z,47.60
2018-05-21T11:09:47.246Z,47.60
2018-05-21T11:10:49.817Z,42.90
2018-05-21T11:11:52.361Z,44.00
2018-05-21T11:12:54.913Z,42.80
2018-05-21T11:13:57.440Z,44.10
2018-05-21T11:15:00.730Z,41.00
2018-05-21T11:16:04.011Z,40.70
2018-05-21T11:17:07.356Z,41.00
2018-05-21T11:18:09.891Z,41.00
2018-05-21T11:19:12.430Z,42.00
2018-05-21T11:20:15.704Z,41.30
2018-05-21T11:21:18.999Z,40.70
2018-05-21T11:22:21.600Z,40.70
2018-05-21T11:23:24.167Z,41.30
2018-05-21T11:24:26.686Z,42.30
2018-05-21T11:25:29.979Z,41.80
2018-05-21T11:26:33.303Z,42.00
2018-05-21T11:27:35.825Z,42.00
2018-05-21T11:28:39.113Z,42.70
2018-05-21T11:29:42.398Z,41.30
2018-05-21T11:30:45.685Z,42.10
2018-05-21T11:31:48.303Z,42.10
2018-05-21T11:32:50.780Z,41.90
2018-05-21T11:33:53.301Z,41.80
2018-05-21T11:34:55.817Z,41.40
2018-05-21T11:35:58.336Z,41.10
2018-05-21T11:37:00.900Z,40.70
2018-05-21T11:38:03.449Z,39.10
2018-05-21T11:39:06.731Z,40.80
2018-05-21T11:40:10.048Z,40.60
2018-05-21T11:41:12.568Z,40.60
2018-05-21T11:42:15.899Z,40.80
2018-05-21T11:43:18.443Z,40.80
2018-05-21T11:44:20.964Z,40.10
2018-05-21T11:45:23.521Z,40.70
2018-05-21T11:46:26.063Z,40.30
2018-05-21T11:47:28.635Z,40.70
2018-05-21T11:48:31.158Z,39.40
2018-05-21T11:49:34.440Z,40.10
2018-05-21T11:50:37.016Z,40.10
2018-05-21T11:51:39.521Z,39.20
2018-05-21T11:52:42.165Z,38.70
2018-05-21T11:53:44.630Z,39.00
2018-05-21T11:54:47.148Z,39.10
2018-05-21T11:55:49.682Z,39.70
2018-05-21T11:56:52.220Z,38.80
2018-05-21T11:57:54.781Z,39.80
2018-05-21T11:58:57.299Z,39.40
2018-05-21T11:59:59.834Z,39.70
2018-05-21T12:01:02.352Z,39.60
2018-05-21T12:02:04.900Z,39.70
2018-05-21T12:03:07.459Z,39.20
2018-05-21T12:04:09.992Z,38.70
2018-05-21T12:05:12.516Z,39.00
2018-05-21T12:06:15.081Z,39.80
2018-05-21T12:07:17.615Z,39.00
2018-05-21T12:08:20.183Z,39.60
2018-05-21T12:09:22.711Z,38.90
2018-05-21T12:10:25.240Z,39.40
2018-05-21T12:11:27.764Z,39.00
2018-05-21T12:12:30.306Z,39.00
2018-05-21T12:13:32.943Z,38.90
2018-05-21T12:14:35.433Z,38.10
2018-05-21T12:15:38.401Z,37.90
2018-05-21T12:16:41.728Z,35.00
2018-05-21T12:17:44.249Z,34.80
2018-05-21T12:18:47.532Z,36.10
2018-05-21T12:19:50.818Z,36.00
2018-05-21T12:20:54.106Z,36.60
2018-05-21T12:21:57.419Z,37.50
2018-05-21T12:22:59.943Z,37.50
2018-05-21T12:24:02.472Z,36.70
2018-05-21T12:25:05.031Z,36.80
2018-05-21T12:26:07.560Z,36.90
2018-05-21T12:27:10.862Z,37.80
2018-05-21T12:28:13.387Z,37.80
2018-05-21T12:30:25.539Z,37.50
2018-05-21T12:31:28.060Z,37.50
2018-05-21T12:32:31.347Z,37.10
2018-05-21T12:33:34.639Z,36.60
2018-05-21T12:34:37.925Z,37.20
2018-05-21T12:35:41.278Z,36.10
2018-05-21T12:36:43.816Z,36.10
2018-05-21T12:37:46.375Z,36.50
2018-05-21T12:38:48.900Z,36.30
2018-05-21T12:39:52.183Z,35.50
2018-05-21T12:40:55.537Z,36.10
2018-05-21T12:41:58.052Z,36.10
2018-05-21T12:43:00.606Z,36.00
2018-05-21T12:44:03.895Z,36.90
2018-05-21T12:45:06.426Z,37.00
2018-05-21T12:46:08.979Z,36.30
2018-05-21T12:47:11.506Z,36.50
2018-05-21T12:48:14.053Z,35.00
2018-05-21T12:49:17.348Z,34.00
2018-05-21T12:50:19.874Z,34.00
2018-05-21T12:51:22.428Z,33.80
2018-05-21T12:52:24.940Z,34.90
2018-05-21T12:53:28.224Z,35.70
2018-05-21T12:54:31.581Z,34.20
2018-05-21T12:55:34.101Z,34.10
2018-05-21T12:56:36.651Z,34.00
2018-05-21T12:57:39.186Z,35.30
2018-05-21T12:58:41.707Z,35.40
2018-05-21T12:59:44.267Z,35.40
2018-05-21T13:00:46.783Z,34.70
2018-05-21T13:01:49.302Z,35.30
2018-05-21T13:02:51.815Z,35.10
2018-05-21T13:03:54.390Z,35.00
2018-05-21T13:04:57.707Z,34.20
2018-05-21T13:06:00.221Z,34.10
2018-05-21T13:07:02.735Z,35.10
2018-05-21T13:08:05.268Z,35.40
2018-05-21T13:09:08.600Z,35.30
2018-05-21T13:10:11.116Z,35.80
2018-05-21T13:11:13.640Z,36.20
2018-05-21T13:12:16.163Z,35.60
2018-05-21T13:13:19.487Z,35.80
2018-05-21T13:14:22.054Z,35.80
2018-05-21T13:15:24.679Z,33.80
2018-05-21T13:16:27.108Z,33.90
2018-05-21T13:17:29.632Z,34.40
2018-05-21T13:18:32.192Z,33.30
2018-05-21T13:19:34.721Z,33.40
2018-05-21T13:20:37.240Z,33.60
2018-05-21T13:21:39.807Z,32.60
2018-05-21T13:22:42.336Z,32.70
2018-05-21T13:23:45.615Z,32.40
2018-05-21T13:24:48.129Z,32.40
2018-05-21T13:25:50.648Z,32.50
2018-05-21T13:26:53.963Z,32.80
2018-05-21T13:27:56.478Z,32.70
2018-05-21T13:28:59.009Z,33.20
2018-05-21T13:30:01.545Z,33.70
2018-05-21T13:31:04.106Z,33.20
2018-05-21T13:32:06.631Z,34.30
2018-05-21T13:33:09.162Z,34.10
2018-05-21T13:34:11.676Z,33.50
2018-05-21T13:35:14.231Z,33.50
2018-05-21T13:36:16.746Z,33.30
2018-05-21T13:37:19.266Z,33.90
2018-05-21T13:38:21.827Z,33.40
2018-05-21T13:39:24.358Z,32.90